sensor_id;sensor_type;location;lat;lon;timestamp;temperature;humidity
40153;DHT22;26371;56.992;23.912;2023-09-30T00:01:08;16.60;99.90
40153;DHT22;26371;56.992;23.912;2023-09-30T00:03:37;16.60;99.90
40153;DHT22;26371;56.992;23.912;2023-09-30T00:06:05;16.60;99.90
40153;DHT22;26371;56.992;23.912;2023-09-30T00:08:34;16.60;99.90
40153;DHT22;26371;56.992;23.912;2023-09-30T00:11:02;16.60;99.90
40153;DHT22;26371;56.992;23.912;2023-09-30T00:13:32;16.60;99.90
40153;DHT22;26371;56.992;23.912;2023-09-30T00:16:01;16.60;99.90
40153;DHT22;26371;56.992;23.912;2023-09-30T00:18:29;16.60;99.90
40153;DHT22;26371;56.992;23.912;2023-09-30T00:20:57;16.60;99.90
40153;DHT22;26371;56.992;23.912;2023-09-30T00:23:26;16.60;99.90
40153;DHT22;26371;56.992;23.912;2023-09-30T00:25:54;16.60;99.90
40153;DHT22;26371;56.992;23.912;2023-09-30T00:28:23;16.60;99.90
40153;DHT22;26371;56.992;23.912;2023-09-30T00:30:53;16.60;99.90
40153;DHT22;26371;56.992;23.912;2023-09-30T00:33:21;16.60;99.90
40153;DHT22;26371;56.992;23.912;2023-09-30T00:35:50;16.60;99.90
40153;DHT22;26371;56.992;23.912;2023-09-30T00:38:18;16.60;99.90
40153;DHT22;26371;56.992;23.912;2023-09-30T00:40:47;16.60;99.90
40153;DHT22;26371;56.992;23.912;2023-09-30T00:43:18;16.60;99.90
40153;DHT22;26371;56.992;23.912;2023-09-30T00:45:47;16.60;99.90
40153;DHT22;26371;56.992;23.912;2023-09-30T00:48:17;16.60;99.90
40153;DHT22;26371;56.992;23.912;2023-09-30T00:50:46;16.60;99.90
40153;DHT22;26371;56.992;23.912;2023-09-30T00:53:14;16.60;99.90
40153;DHT22;26371;56.992;23.912;2023-09-30T00:55:43;16.60;99.90
40153;DHT22;26371;56.992;23.912;2023-09-30T00:58:11;16.60;99.90
40153;DHT22;26371;56.992;23.912;2023-09-30T01:00:40;16.60;99.90
40153;DHT22;26371;56.992;23.912;2023-09-30T01:03:09;16.60;99.90
40153;DHT22;26371;56.992;23.912;2023-09-30T01:05:40;16.60;99.90
40153;DHT22;26371;56.992;23.912;2023-09-30T01:08:08;16.60;99.90
40153;DHT22;26371;56.992;23.912;2023-09-30T01:10:37;16.60;99.90
40153;DHT22;26371;56.992;23.912;2023-09-30T01:13:05;16.60;99.90
40153;DHT22;26371;56.992;23.912;2023-09-30T01:15:33;16.60;99.90
40153;DHT22;26371;56.992;23.912;2023-09-30T01:18:04;16.60;99.90
40153;DHT22;26371;56.992;23.912;2023-09-30T01:20:32;16.60;99.90
40153;DHT22;26371;56.992;23.912;2023-09-30T01:23:02;16.60;99.90
40153;DHT22;26371;56.992;23.912;2023-09-30T01:25:31;16.60;99.90
40153;DHT22;26371;56.992;23.912;2023-09-30T01:28:00;16.60;99.90
40153;DHT22;26371;56.992;23.912;2023-09-30T01:30:33;16.60;99.90
40153;DHT22;26371;56.992;23.912;2023-09-30T01:33:01;16.60;99.90
40153;DHT22;26371;56.992;23.912;2023-09-30T01:35:30;16.60;99.90
40153;DHT22;26371;56.992;23.912;2023-09-30T01:37:58;16.60;99.90
40153;DHT22;26371;56.992;23.912;2023-09-30T01:40:29;16.60;99.90
40153;DHT22;26371;56.992;23.912;2023-09-30T01:42:58;16.60;99.90
40153;DHT22;26371;56.992;23.912;2023-09-30T01:45:26;16.60;99.90
40153;DHT22;26371;56.992;23.912;2023-09-30T01:47:55;16.60;99.90
40153;DHT22;26371;56.992;23.912;2023-09-30T01:50:23;16.60;99.90
40153;DHT22;26371;56.992;23.912;2023-09-30T01:52:51;16.60;99.90
40153;DHT22;26371;56.992;23.912;2023-09-30T01:55:20;16.60;99.90
40153;DHT22;26371;56.992;23.912;2023-09-30T01:57:50;16.60;99.90
40153;DHT22;26371;56.992;23.912;2023-09-30T02:00:18;16.60;99.90
40153;DHT22;26371;56.992;23.912;2023-09-30T02:02:47;16.60;99.90
40153;DHT22;26371;56.992;23.912;2023-09-30T02:05:15;16.60;99.90
40153;DHT22;26371;56.992;23.912;2023-09-30T02:07:44;16.60;99.90
40153;DHT22;26371;56.992;23.912;2023-09-30T02:10:12;16.60;99.90
40153;DHT22;26371;56.992;23.912;2023-09-30T02:12:40;16.60;99.90
40153;DHT22;26371;56.992;23.912;2023-09-30T02:15:13;16.60;99.90
40153;DHT22;26371;56.992;23.912;2023-09-30T02:17:43;16.60;99.90
40153;DHT22;26371;56.992;23.912;2023-09-30T02:20:14;16.60;99.90
40153;DHT22;26371;56.992;23.912;2023-09-30T02:22:45;16.60;99.90
40153;DHT22;26371;56.992;23.912;2023-09-30T02:25:14;16.60;99.90
40153;DHT22;26371;56.992;23.912;2023-09-30T02:27:43;16.60;99.90
40153;DHT22;26371;56.992;23.912;2023-09-30T02:30:13;16.60;99.90
40153;DHT22;26371;56.992;23.912;2023-09-30T02:32:43;16.60;99.90
40153;DHT22;26371;56.992;23.912;2023-09-30T02:35:13;16.50;99.90
40153;DHT22;26371;56.992;23.912;2023-09-30T02:37:43;16.50;99.90
40153;DHT22;26371;56.992;23.912;2023-09-30T02:40:11;16.50;99.90
40153;DHT22;26371;56.992;23.912;2023-09-30T02:42:41;16.50;99.90
40153;DHT22;26371;56.992;23.912;2023-09-30T02:47:40;16.40;99.90
40153;DHT22;26371;56.992;23.912;2023-09-30T02:50:09;16.30;99.90
40153;DHT22;26371;56.992;23.912;2023-09-30T02:52:38;16.30;99.90
40153;DHT22;26371;56.992;23.912;2023-09-30T02:55:08;16.30;99.90
40153;DHT22;26371;56.992;23.912;2023-09-30T02:57:37;16.30;99.90
40153;DHT22;26371;56.992;23.912;2023-09-30T03:00:08;16.30;99.90
40153;DHT22;26371;56.992;23.912;2023-09-30T03:02:49;16.20;99.90
40153;DHT22;26371;56.992;23.912;2023-09-30T03:05:18;16.20;99.90
40153;DHT22;26371;56.992;23.912;2023-09-30T03:07:47;16.30;99.90
40153;DHT22;26371;56.992;23.912;2023-09-30T03:10:17;16.20;99.90
40153;DHT22;26371;56.992;23.912;2023-09-30T03:12:47;16.20;99.90
40153;DHT22;26371;56.992;23.912;2023-09-30T03:15:16;16.20;99.90
40153;DHT22;26371;56.992;23.912;2023-09-30T03:17:45;16.30;99.90
40153;DHT22;26371;56.992;23.912;2023-09-30T03:20:19;16.30;99.90
40153;DHT22;26371;56.992;23.912;2023-09-30T03:22:48;16.30;99.90
40153;DHT22;26371;56.992;23.912;2023-09-30T03:25:17;16.30;99.90
40153;DHT22;26371;56.992;23.912;2023-09-30T03:27:45;16.30;99.90
40153;DHT22;26371;56.992;23.912;2023-09-30T03:30:15;16.30;99.90
40153;DHT22;26371;56.992;23.912;2023-09-30T03:32:43;16.20;99.90
40153;DHT22;26371;56.992;23.912;2023-09-30T03:35:12;16.30;99.90
40153;DHT22;26371;56.992;23.912;2023-09-30T03:37:46;16.20;99.90
40153;DHT22;26371;56.992;23.912;2023-09-30T03:40:14;16.20;99.90
40153;DHT22;26371;56.992;23.912;2023-09-30T03:42:47;16.20;99.90
40153;DHT22;26371;56.992;23.912;2023-09-30T03:45:17;16.20;99.90
40153;DHT22;26371;56.992;23.912;2023-09-30T03:47:46;16.20;99.90
40153;DHT22;26371;56.992;23.912;2023-09-30T03:50:16;16.20;99.90
40153;DHT22;26371;56.992;23.912;2023-09-30T03:52:45;16.20;99.90
40153;DHT22;26371;56.992;23.912;2023-09-30T03:55:15;16.30;99.90
40153;DHT22;26371;56.992;23.912;2023-09-30T03:57:47;16.30;99.90
40153;DHT22;26371;56.992;23.912;2023-09-30T04:00:16;16.20;99.90
40153;DHT22;26371;56.992;23.912;2023-09-30T04:02:47;16.20;99.90
40153;DHT22;26371;56.992;23.912;2023-09-30T04:05:18;16.30;99.90
40153;DHT22;26371;56.992;23.912;2023-09-30T04:07:48;16.30;99.90
40153;DHT22;26371;56.992;23.912;2023-09-30T04:10:16;16.30;99.90
40153;DHT22;26371;56.992;23.912;2023-09-30T04:12:47;16.30;99.90
40153;DHT22;26371;56.992;23.912;2023-09-30T04:15:16;16.30;99.90
40153;DHT22;26371;56.992;23.912;2023-09-30T04:17:45;16.30;99.90
40153;DHT22;26371;56.992;23.912;2023-09-30T04:20:13;16.30;99.90
40153;DHT22;26371;56.992;23.912;2023-09-30T04:22:48;16.30;99.90
40153;DHT22;26371;56.992;23.912;2023-09-30T04:25:17;16.30;99.90
40153;DHT22;26371;56.992;23.912;2023-09-30T04:27:46;16.30;99.90
40153;DHT22;26371;56.992;23.912;2023-09-30T04:30:16;16.30;99.90
40153;DHT22;26371;56.992;23.912;2023-09-30T04:32:45;16.30;99.90
40153;DHT22;26371;56.992;23.912;2023-09-30T04:35:13;16.20;99.90
40153;DHT22;26371;56.992;23.912;2023-09-30T04:37:42;16.20;99.90
40153;DHT22;26371;56.992;23.912;2023-09-30T04:40:12;16.20;99.90
40153;DHT22;26371;56.992;23.912;2023-09-30T04:42:45;16.20;99.90
40153;DHT22;26371;56.992;23.912;2023-09-30T04:45:14;16.20;99.90
40153;DHT22;26371;56.992;23.912;2023-09-30T04:47:43;16.20;99.90
40153;DHT22;26371;56.992;23.912;2023-09-30T04:50:12;16.20;99.90
40153;DHT22;26371;56.992;23.912;2023-09-30T04:52:44;16.20;99.90
40153;DHT22;26371;56.992;23.912;2023-09-30T04:55:14;16.20;99.90
40153;DHT22;26371;56.992;23.912;2023-09-30T04:57:43;16.20;99.90
40153;DHT22;26371;56.992;23.912;2023-09-30T05:00:13;16.20;99.90
40153;DHT22;26371;56.992;23.912;2023-09-30T05:02:41;16.30;99.90
40153;DHT22;26371;56.992;23.912;2023-09-30T05:05:12;16.30;99.90
40153;DHT22;26371;56.992;23.912;2023-09-30T05:07:42;16.30;99.90
40153;DHT22;26371;56.992;23.912;2023-09-30T05:10:10;16.30;99.90
40153;DHT22;26371;56.992;23.912;2023-09-30T05:12:42;16.30;99.90
40153;DHT22;26371;56.992;23.912;2023-09-30T05:15:14;16.30;99.90
40153;DHT22;26371;56.992;23.912;2023-09-30T05:17:44;16.30;99.90
40153;DHT22;26371;56.992;23.912;2023-09-30T05:20:13;16.30;99.90
40153;DHT22;26371;56.992;23.912;2023-09-30T05:22:45;16.30;99.90
40153;DHT22;26371;56.992;23.912;2023-09-30T05:25:13;16.30;99.90
40153;DHT22;26371;56.992;23.912;2023-09-30T05:27:45;16.30;99.90
40153;DHT22;26371;56.992;23.912;2023-09-30T05:30:16;16.30;99.90
40153;DHT22;26371;56.992;23.912;2023-09-30T05:32:47;16.30;99.90
40153;DHT22;26371;56.992;23.912;2023-09-30T05:35:15;16.40;99.90
40153;DHT22;26371;56.992;23.912;2023-09-30T05:37:44;16.40;99.90
40153;DHT22;26371;56.992;23.912;2023-09-30T05:40:13;16.40;99.90
40153;DHT22;26371;56.992;23.912;2023-09-30T05:42:52;16.40;99.90
40153;DHT22;26371;56.992;23.912;2023-09-30T05:45:21;16.50;99.90
40153;DHT22;26371;56.992;23.912;2023-09-30T05:47:50;16.50;99.90
40153;DHT22;26371;56.992;23.912;2023-09-30T05:50:20;16.50;99.90
40153;DHT22;26371;56.992;23.912;2023-09-30T05:52:54;16.50;99.90
40153;DHT22;26371;56.992;23.912;2023-09-30T05:55:23;16.40;99.90
40153;DHT22;26371;56.992;23.912;2023-09-30T05:57:55;16.40;99.90
40153;DHT22;26371;56.992;23.912;2023-09-30T06:00:23;16.40;99.90
40153;DHT22;26371;56.992;23.912;2023-09-30T06:02:56;16.40;99.90
40153;DHT22;26371;56.992;23.912;2023-09-30T06:05:25;16.40;99.90
40153;DHT22;26371;56.992;23.912;2023-09-30T06:07:56;16.40;99.90
40153;DHT22;26371;56.992;23.912;2023-09-30T06:10:24;16.40;99.90
40153;DHT22;26371;56.992;23.912;2023-09-30T06:12:54;16.40;99.90
40153;DHT22;26371;56.992;23.912;2023-09-30T06:15:23;16.40;99.90
40153;DHT22;26371;56.992;23.912;2023-09-30T06:17:53;16.40;99.90
40153;DHT22;26371;56.992;23.912;2023-09-30T06:20:22;16.40;99.90
40153;DHT22;26371;56.992;23.912;2023-09-30T06:22:54;16.40;99.90
40153;DHT22;26371;56.992;23.912;2023-09-30T06:25:23;16.50;99.90
40153;DHT22;26371;56.992;23.912;2023-09-30T06:27:52;16.50;99.90
40153;DHT22;26371;56.992;23.912;2023-09-30T06:30:23;16.50;99.90
40153;DHT22;26371;56.992;23.912;2023-09-30T06:32:57;16.50;99.90
40153;DHT22;26371;56.992;23.912;2023-09-30T06:35:28;16.60;99.90
40153;DHT22;26371;56.992;23.912;2023-09-30T06:37:57;16.60;99.90
40153;DHT22;26371;56.992;23.912;2023-09-30T06:40:26;16.60;99.90
40153;DHT22;26371;56.992;23.912;2023-09-30T06:42:54;16.60;99.90
40153;DHT22;26371;56.992;23.912;2023-09-30T06:45:24;16.70;99.90
40153;DHT22;26371;56.992;23.912;2023-09-30T06:47:53;16.70;99.90
40153;DHT22;26371;56.992;23.912;2023-09-30T06:50:22;16.70;99.90
40153;DHT22;26371;56.992;23.912;2023-09-30T06:52:51;16.70;99.90
40153;DHT22;26371;56.992;23.912;2023-09-30T06:55:19;16.70;99.90
40153;DHT22;26371;56.992;23.912;2023-09-30T06:57:47;16.70;99.90
40153;DHT22;26371;56.992;23.912;2023-09-30T07:00:16;16.70;99.90
40153;DHT22;26371;56.992;23.912;2023-09-30T07:02:46;16.70;99.90
40153;DHT22;26371;56.992;23.912;2023-09-30T07:05:14;16.70;99.90
40153;DHT22;26371;56.992;23.912;2023-09-30T07:07:43;16.70;99.90
40153;DHT22;26371;56.992;23.912;2023-09-30T07:10:12;16.70;99.90
40153;DHT22;26371;56.992;23.912;2023-09-30T07:12:41;16.80;99.90
40153;DHT22;26371;56.992;23.912;2023-09-30T07:15:10;16.80;99.90
40153;DHT22;26371;56.992;23.912;2023-09-30T07:17:38;16.80;99.90
40153;DHT22;26371;56.992;23.912;2023-09-30T07:20:13;16.90;99.90
40153;DHT22;26371;56.992;23.912;2023-09-30T07:22:42;16.90;99.90
40153;DHT22;26371;56.992;23.912;2023-09-30T07:25:25;16.90;99.90
40153;DHT22;26371;56.992;23.912;2023-09-30T07:27:53;16.90;99.90
40153;DHT22;26371;56.992;23.912;2023-09-30T07:30:21;16.90;99.90
40153;DHT22;26371;56.992;23.912;2023-09-30T07:32:50;16.90;99.90
40153;DHT22;26371;56.992;23.912;2023-09-30T07:35:20;16.90;99.90
40153;DHT22;26371;56.992;23.912;2023-09-30T07:37:48;17.00;99.90
40153;DHT22;26371;56.992;23.912;2023-09-30T07:40:20;17.00;99.90
40153;DHT22;26371;56.992;23.912;2023-09-30T07:42:49;17.10;99.90
40153;DHT22;26371;56.992;23.912;2023-09-30T07:45:18;17.10;99.90
40153;DHT22;26371;56.992;23.912;2023-09-30T07:47:48;17.10;99.90
40153;DHT22;26371;56.992;23.912;2023-09-30T07:50:19;17.10;99.90
40153;DHT22;26371;56.992;23.912;2023-09-30T07:52:48;17.10;99.90
40153;DHT22;26371;56.992;23.912;2023-09-30T07:55:16;17.20;99.90
40153;DHT22;26371;56.992;23.912;2023-09-30T07:57:45;17.20;99.90
40153;DHT22;26371;56.992;23.912;2023-09-30T08:00:14;17.30;99.90
40153;DHT22;26371;56.992;23.912;2023-09-30T08:02:48;17.30;99.90
40153;DHT22;26371;56.992;23.912;2023-09-30T08:05:17;17.20;99.90
40153;DHT22;26371;56.992;23.912;2023-09-30T08:07:47;17.30;99.90
40153;DHT22;26371;56.992;23.912;2023-09-30T08:10:15;17.30;99.90
40153;DHT22;26371;56.992;23.912;2023-09-30T08:12:44;17.30;99.90
40153;DHT22;26371;56.992;23.912;2023-09-30T08:15:15;17.40;99.90
40153;DHT22;26371;56.992;23.912;2023-09-30T08:17:44;17.40;99.90
40153;DHT22;26371;56.992;23.912;2023-09-30T08:20:12;17.40;99.90
40153;DHT22;26371;56.992;23.912;2023-09-30T08:22:41;17.50;99.90
40153;DHT22;26371;56.992;23.912;2023-09-30T08:25:11;17.50;99.90
40153;DHT22;26371;56.992;23.912;2023-09-30T08:27:39;17.60;99.90
40153;DHT22;26371;56.992;23.912;2023-09-30T08:30:08;17.50;99.90
40153;DHT22;26371;56.992;23.912;2023-09-30T08:32:37;17.50;99.90
40153;DHT22;26371;56.992;23.912;2023-09-30T08:35:07;17.50;99.90
40153;DHT22;26371;56.992;23.912;2023-09-30T08:37:36;17.40;99.90
40153;DHT22;26371;56.992;23.912;2023-09-30T08:40:05;17.40;99.90
40153;DHT22;26371;56.992;23.912;2023-09-30T08:42:39;17.40;99.90
40153;DHT22;26371;56.992;23.912;2023-09-30T08:45:10;17.40;99.90
40153;DHT22;26371;56.992;23.912;2023-09-30T08:47:38;17.30;99.90
40153;DHT22;26371;56.992;23.912;2023-09-30T08:50:08;17.30;99.90
40153;DHT22;26371;56.992;23.912;2023-09-30T08:52:38;17.20;99.90
40153;DHT22;26371;56.992;23.912;2023-09-30T08:55:07;17.10;99.90
40153;DHT22;26371;56.992;23.912;2023-09-30T08:57:37;17.10;99.90
40153;DHT22;26371;56.992;23.912;2023-09-30T09:00:08;17.10;99.90
40153;DHT22;26371;56.992;23.912;2023-09-30T09:02:40;17.00;99.90
40153;DHT22;26371;56.992;23.912;2023-09-30T09:05:09;17.00;99.90
40153;DHT22;26371;56.992;23.912;2023-09-30T09:07:38;17.00;99.90
40153;DHT22;26371;56.992;23.912;2023-09-30T09:10:07;17.00;99.90
40153;DHT22;26371;56.992;23.912;2023-09-30T09:12:37;16.90;99.90
40153;DHT22;26371;56.992;23.912;2023-09-30T09:15:08;17.00;99.90
40153;DHT22;26371;56.992;23.912;2023-09-30T09:17:47;16.90;99.90
40153;DHT22;26371;56.992;23.912;2023-09-30T09:20:17;16.90;99.90
40153;DHT22;26371;56.992;23.912;2023-09-30T09:22:47;17.00;99.90
40153;DHT22;26371;56.992;23.912;2023-09-30T09:25:17;17.00;99.90
40153;DHT22;26371;56.992;23.912;2023-09-30T09:27:46;17.10;99.90
40153;DHT22;26371;56.992;23.912;2023-09-30T09:30:16;17.10;99.90
40153;DHT22;26371;56.992;23.912;2023-09-30T09:32:52;17.10;99.90
40153;DHT22;26371;56.992;23.912;2023-09-30T09:35:21;17.20;99.90
40153;DHT22;26371;56.992;23.912;2023-09-30T09:37:56;17.20;99.90
40153;DHT22;26371;56.992;23.912;2023-09-30T09:40:25;17.20;99.90
40153;DHT22;26371;56.992;23.912;2023-09-30T09:42:54;17.20;99.90
40153;DHT22;26371;56.992;23.912;2023-09-30T09:45:24;17.30;99.90
40153;DHT22;26371;56.992;23.912;2023-09-30T09:47:53;17.20;99.90
40153;DHT22;26371;56.992;23.912;2023-09-30T09:50:23;17.20;99.90
40153;DHT22;26371;56.992;23.912;2023-09-30T09:52:52;17.20;99.90
40153;DHT22;26371;56.992;23.912;2023-09-30T09:55:22;17.10;99.90
40153;DHT22;26371;56.992;23.912;2023-09-30T09:57:51;17.10;99.90
40153;DHT22;26371;56.992;23.912;2023-09-30T10:00:20;17.00;99.90
40153;DHT22;26371;56.992;23.912;2023-09-30T10:02:51;17.00;99.90
40153;DHT22;26371;56.992;23.912;2023-09-30T10:05:20;17.00;99.90
40153;DHT22;26371;56.992;23.912;2023-09-30T10:07:50;16.90;99.90
40153;DHT22;26371;56.992;23.912;2023-09-30T10:10:19;17.00;99.90
40153;DHT22;26371;56.992;23.912;2023-09-30T10:12:48;17.00;99.90
40153;DHT22;26371;56.992;23.912;2023-09-30T10:18:11;17.10;99.90
40153;DHT22;26371;56.992;23.912;2023-09-30T10:20:42;17.20;99.90
40153;DHT22;26371;56.992;23.912;2023-09-30T10:23:22;17.30;99.90
40153;DHT22;26371;56.992;23.912;2023-09-30T10:25:52;17.30;99.90
40153;DHT22;26371;56.992;23.912;2023-09-30T10:28:37;17.20;99.90
40153;DHT22;26371;56.992;23.912;2023-09-30T10:31:09;17.30;99.90
40153;DHT22;26371;56.992;23.912;2023-09-30T10:36:28;17.40;99.90
40153;DHT22;26371;56.992;23.912;2023-09-30T10:38:57;17.50;99.90
40153;DHT22;26371;56.992;23.912;2023-09-30T10:44:33;17.60;99.90
40153;DHT22;26371;56.992;23.912;2023-09-30T10:47:33;17.70;99.90
40153;DHT22;26371;56.992;23.912;2023-09-30T10:50:03;17.70;99.90
40153;DHT22;26371;56.992;23.912;2023-09-30T10:52:33;17.80;99.90
40153;DHT22;26371;56.992;23.912;2023-09-30T10:55:02;17.90;99.90
40153;DHT22;26371;56.992;23.912;2023-09-30T10:57:31;17.90;99.90
40153;DHT22;26371;56.992;23.912;2023-09-30T11:00:06;17.90;99.90
40153;DHT22;26371;56.992;23.912;2023-09-30T11:02:35;18.00;99.90
40153;DHT22;26371;56.992;23.912;2023-09-30T11:05:08;18.00;99.90
40153;DHT22;26371;56.992;23.912;2023-09-30T11:07:38;18.00;99.90
40153;DHT22;26371;56.992;23.912;2023-09-30T11:10:07;18.00;99.90
40153;DHT22;26371;56.992;23.912;2023-09-30T11:12:35;18.10;99.90
40153;DHT22;26371;56.992;23.912;2023-09-30T11:15:04;18.00;99.90
40153;DHT22;26371;56.992;23.912;2023-09-30T11:17:35;18.00;99.90
40153;DHT22;26371;56.992;23.912;2023-09-30T11:20:04;18.00;99.90
40153;DHT22;26371;56.992;23.912;2023-09-30T11:22:33;18.00;99.90
40153;DHT22;26371;56.992;23.912;2023-09-30T11:25:04;17.90;99.90
40153;DHT22;26371;56.992;23.912;2023-09-30T11:27:33;17.90;99.90
40153;DHT22;26371;56.992;23.912;2023-09-30T11:30:02;17.90;99.90
40153;DHT22;26371;56.992;23.912;2023-09-30T11:32:30;17.90;99.90
40153;DHT22;26371;56.992;23.912;2023-09-30T11:35:00;17.90;99.90
40153;DHT22;26371;56.992;23.912;2023-09-30T11:37:30;18.00;99.90
40153;DHT22;26371;56.992;23.912;2023-09-30T11:40:09;17.90;99.90
40153;DHT22;26371;56.992;23.912;2023-09-30T11:42:38;17.90;99.90
40153;DHT22;26371;56.992;23.912;2023-09-30T11:45:18;17.80;99.90
40153;DHT22;26371;56.992;23.912;2023-09-30T11:47:46;17.80;99.90
40153;DHT22;26371;56.992;23.912;2023-09-30T11:50:15;17.80;99.90
40153;DHT22;26371;56.992;23.912;2023-09-30T11:52:44;17.80;99.90
40153;DHT22;26371;56.992;23.912;2023-09-30T11:55:15;17.80;99.90
40153;DHT22;26371;56.992;23.912;2023-09-30T11:57:43;17.80;99.90
40153;DHT22;26371;56.992;23.912;2023-09-30T12:00:12;17.90;99.90
40153;DHT22;26371;56.992;23.912;2023-09-30T12:02:41;17.80;99.90
40153;DHT22;26371;56.992;23.912;2023-09-30T12:05:09;17.80;99.90
40153;DHT22;26371;56.992;23.912;2023-09-30T12:07:40;17.80;99.90
40153;DHT22;26371;56.992;23.912;2023-09-30T12:10:09;17.80;99.90
40153;DHT22;26371;56.992;23.912;2023-09-30T12:12:39;17.90;99.90
40153;DHT22;26371;56.992;23.912;2023-09-30T12:15:08;17.90;99.90
40153;DHT22;26371;56.992;23.912;2023-09-30T12:17:37;17.90;99.90
40153;DHT22;26371;56.992;23.912;2023-09-30T12:20:06;17.80;99.90
40153;DHT22;26371;56.992;23.912;2023-09-30T12:22:35;17.80;99.90
40153;DHT22;26371;56.992;23.912;2023-09-30T12:25:04;17.80;99.90
40153;DHT22;26371;56.992;23.912;2023-09-30T12:27:33;17.90;99.90
40153;DHT22;26371;56.992;23.912;2023-09-30T12:30:04;17.90;99.90
40153;DHT22;26371;56.992;23.912;2023-09-30T12:32:33;17.90;99.90
40153;DHT22;26371;56.992;23.912;2023-09-30T12:35:02;17.80;99.90
40153;DHT22;26371;56.992;23.912;2023-09-30T12:37:31;17.90;99.90
40153;DHT22;26371;56.992;23.912;2023-09-30T12:40:00;17.90;99.90
40153;DHT22;26371;56.992;23.912;2023-09-30T12:42:29;17.90;99.90
40153;DHT22;26371;56.992;23.912;2023-09-30T12:44:57;18.00;99.90
40153;DHT22;26371;56.992;23.912;2023-09-30T12:47:27;17.90;99.90
40153;DHT22;26371;56.992;23.912;2023-09-30T12:49:56;17.90;99.90
40153;DHT22;26371;56.992;23.912;2023-09-30T12:52:24;17.80;99.90
40153;DHT22;26371;56.992;23.912;2023-09-30T12:54:53;17.80;99.90
40153;DHT22;26371;56.992;23.912;2023-09-30T12:57:21;17.80;99.90
40153;DHT22;26371;56.992;23.912;2023-09-30T12:59:49;17.70;99.90
40153;DHT22;26371;56.992;23.912;2023-09-30T13:02:18;17.70;99.90
40153;DHT22;26371;56.992;23.912;2023-09-30T13:04:48;17.60;99.90
40153;DHT22;26371;56.992;23.912;2023-09-30T13:07:16;17.60;99.90
40153;DHT22;26371;56.992;23.912;2023-09-30T13:09:45;17.50;99.90
40153;DHT22;26371;56.992;23.912;2023-09-30T13:12:13;17.40;99.90
40153;DHT22;26371;56.992;23.912;2023-09-30T13:14:41;17.50;99.90
40153;DHT22;26371;56.992;23.912;2023-09-30T13:17:10;17.40;99.90
40153;DHT22;26371;56.992;23.912;2023-09-30T13:19:41;17.40;99.90
40153;DHT22;26371;56.992;23.912;2023-09-30T13:22:11;17.40;99.90
40153;DHT22;26371;56.992;23.912;2023-09-30T13:24:45;17.40;99.90
40153;DHT22;26371;56.992;23.912;2023-09-30T13:27:13;17.30;99.90
40153;DHT22;26371;56.992;23.912;2023-09-30T13:29:42;17.30;99.90
40153;DHT22;26371;56.992;23.912;2023-09-30T13:32:12;17.20;99.90
40153;DHT22;26371;56.992;23.912;2023-09-30T13:34:41;17.30;99.90
40153;DHT22;26371;56.992;23.912;2023-09-30T13:37:09;17.30;99.90
40153;DHT22;26371;56.992;23.912;2023-09-30T13:39:39;17.40;99.90
40153;DHT22;26371;56.992;23.912;2023-09-30T13:42:08;17.50;99.90
40153;DHT22;26371;56.992;23.912;2023-09-30T13:44:36;17.60;99.90
40153;DHT22;26371;56.992;23.912;2023-09-30T13:47:05;17.70;99.90
40153;DHT22;26371;56.992;23.912;2023-09-30T13:49:35;17.70;99.90
40153;DHT22;26371;56.992;23.912;2023-09-30T13:52:03;17.60;99.90
40153;DHT22;26371;56.992;23.912;2023-09-30T13:54:32;17.60;99.90
40153;DHT22;26371;56.992;23.912;2023-09-30T13:57:02;17.50;99.90
40153;DHT22;26371;56.992;23.912;2023-09-30T13:59:33;17.50;99.90
40153;DHT22;26371;56.992;23.912;2023-09-30T14:02:01;17.40;99.90
40153;DHT22;26371;56.992;23.912;2023-09-30T14:04:30;17.30;99.90
40153;DHT22;26371;56.992;23.912;2023-09-30T14:06:59;17.20;99.90
40153;DHT22;26371;56.992;23.912;2023-09-30T14:09:29;17.10;99.90
40153;DHT22;26371;56.992;23.912;2023-09-30T14:12:04;17.00;99.90
40153;DHT22;26371;56.992;23.912;2023-09-30T14:14:32;17.00;99.90
40153;DHT22;26371;56.992;23.912;2023-09-30T14:17:01;16.90;99.90
40153;DHT22;26371;56.992;23.912;2023-09-30T14:19:34;16.90;99.90
40153;DHT22;26371;56.992;23.912;2023-09-30T14:22:03;16.90;99.90
40153;DHT22;26371;56.992;23.912;2023-09-30T14:24:32;16.90;99.90
40153;DHT22;26371;56.992;23.912;2023-09-30T14:27:01;16.80;99.90
40153;DHT22;26371;56.992;23.912;2023-09-30T14:29:31;16.80;99.90
40153;DHT22;26371;56.992;23.912;2023-09-30T14:31:59;16.80;99.90
40153;DHT22;26371;56.992;23.912;2023-09-30T14:34:29;16.70;99.90
40153;DHT22;26371;56.992;23.912;2023-09-30T14:36:57;16.60;99.90
40153;DHT22;26371;56.992;23.912;2023-09-30T14:39:26;16.60;99.90
40153;DHT22;26371;56.992;23.912;2023-09-30T14:41:54;16.60;99.90
40153;DHT22;26371;56.992;23.912;2023-09-30T14:44:23;16.60;99.90
40153;DHT22;26371;56.992;23.912;2023-09-30T14:46:53;16.60;99.90
40153;DHT22;26371;56.992;23.912;2023-09-30T14:49:23;16.50;99.90
40153;DHT22;26371;56.992;23.912;2023-09-30T14:51:51;16.50;99.90
40153;DHT22;26371;56.992;23.912;2023-09-30T14:56:49;16.40;99.90
40153;DHT22;26371;56.992;23.912;2023-09-30T14:59:17;16.40;99.90
40153;DHT22;26371;56.992;23.912;2023-09-30T15:01:46;16.30;99.90
40153;DHT22;26371;56.992;23.912;2023-09-30T15:04:17;16.30;99.90
40153;DHT22;26371;56.992;23.912;2023-09-30T15:06:46;16.20;99.90
40153;DHT22;26371;56.992;23.912;2023-09-30T15:09:14;16.20;99.90
40153;DHT22;26371;56.992;23.912;2023-09-30T15:11:43;16.20;99.90
40153;DHT22;26371;56.992;23.912;2023-09-30T15:14:11;16.10;99.90
40153;DHT22;26371;56.992;23.912;2023-09-30T15:16:39;16.00;99.90
40153;DHT22;26371;56.992;23.912;2023-09-30T15:19:08;16.00;99.90
40153;DHT22;26371;56.992;23.912;2023-09-30T15:24:07;15.90;99.90
40153;DHT22;26371;56.992;23.912;2023-09-30T15:26:37;16.10;99.90
40153;DHT22;26371;56.992;23.912;2023-09-30T15:29:06;15.80;99.90
40153;DHT22;26371;56.992;23.912;2023-09-30T15:31:34;15.80;99.90
40153;DHT22;26371;56.992;23.912;2023-09-30T15:34:02;15.70;99.90
40153;DHT22;26371;56.992;23.912;2023-09-30T15:36:32;15.70;99.90
40153;DHT22;26371;56.992;23.912;2023-09-30T15:39:01;15.60;99.90
40153;DHT22;26371;56.992;23.912;2023-09-30T15:41:31;15.60;99.90
40153;DHT22;26371;56.992;23.912;2023-09-30T15:44:00;15.50;99.90
40153;DHT22;26371;56.992;23.912;2023-09-30T15:46:29;15.50;99.90